sensor_id;sensor_type;location;lat;lon;timestamp;P1;durP1;ratioP1;P2;durP2;ratioP2
38779;SDS011;29273;49.962;9.768;2022-08-19T00:01:29;7.10;;;6.40;;
38779;SDS011;29273;49.962;9.768;2022-08-19T00:03:58;7.40;;;6.70;;
38779;SDS011;29273;49.962;9.768;2022-08-19T00:06:26;6.95;;;6.22;;
38779;SDS011;29273;49.962;9.768;2022-08-19T00:08:54;7.53;;;6.82;;
38779;SDS011;29273;49.962;9.768;2022-08-19T00:11:21;6.82;;;6.13;;
38779;SDS011;29273;49.962;9.768;2022-08-19T00:13:46;7.25;;;6.55;;
38779;SDS011;29273;49.962;9.768;2022-08-19T00:16:14;8.18;;;7.38;;
38779;SDS011;29273;49.962;9.768;2022-08-19T00:18:40;7.60;;;6.72;;
38779;SDS011;29273;49.962;9.768;2022-08-19T00:21:06;7.70;;;6.93;;
38779;SDS011;29273;49.962;9.768;2022-08-19T00:23:34;6.88;;;6.13;;
38779;SDS011;29273;49.962;9.768;2022-08-19T00:26:02;8.00;;;6.85;;
38779;SDS011;29273;49.962;9.768;2022-08-19T00:28:31;7.05;;;6.35;;
38779;SDS011;29273;49.962;9.768;2022-08-19T00:30:58;8.43;;;7.50;;
38779;SDS011;29273;49.962;9.768;2022-08-19T00:33:24;7.70;;;6.93;;
38779;SDS011;29273;49.962;9.768;2022-08-19T00:35:50;7.15;;;6.25;;
38779;SDS011;29273;49.962;9.768;2022-08-19T00:38:15;7.13;;;6.43;;
38779;SDS011;29273;49.962;9.768;2022-08-19T00:40:44;8.20;;;7.40;;
38779;SDS011;29273;49.962;9.768;2022-08-19T00:43:13;7.10;;;6.40;;
38779;SDS011;29273;49.962;9.768;2022-08-19T00:45:43;6.57;;;5.95;;
38779;SDS011;29273;49.962;9.768;2022-08-19T00:48:09;7.57;;;6.75;;
38779;SDS011;29273;49.962;9.768;2022-08-19T00:50:35;7.03;;;6.32;;
38779;SDS011;29273;49.962;9.768;2022-08-19T00:53:01;7.22;;;6.53;;
38779;SDS011;29273;49.962;9.768;2022-08-19T00:55:29;6.55;;;5.95;;
38779;SDS011;29273;49.962;9.768;2022-08-19T00:57:58;7.95;;;6.70;;
38779;SDS011;29273;49.962;9.768;2022-08-19T01:00:29;6.97;;;6.22;;
38779;SDS011;29273;49.962;9.768;2022-08-19T01:02:55;7.95;;;6.60;;
38779;SDS011;29273;49.962;9.768;2022-08-19T01:05:23;6.47;;;5.88;;
38779;SDS011;29273;49.962;9.768;2022-08-19T01:07:52;6.18;;;5.57;;
38779;SDS011;29273;49.962;9.768;2022-08-19T01:10:20;7.13;;;6.40;;
38779;SDS011;29273;49.962;9.768;2022-08-19T01:12:48;7.18;;;6.47;;
38779;SDS011;29273;49.962;9.768;2022-08-19T01:15:17;7.15;;;6.45;;
38779;SDS011;29273;49.962;9.768;2022-08-19T01:17:46;7.30;;;6.60;;
38779;SDS011;29273;49.962;9.768;2022-08-19T01:20:14;6.75;;;6.05;;
38779;SDS011;29273;49.962;9.768;2022-08-19T01:22:47;7.43;;;6.70;;
38779;SDS011;29273;49.962;9.768;2022-08-19T01:25:15;7.28;;;6.57;;
38779;SDS011;29273;49.962;9.768;2022-08-19T01:27:44;7.30;;;6.53;;
38779;SDS011;29273;49.962;9.768;2022-08-19T01:30:14;7.55;;;6.75;;
38779;SDS011;29273;49.962;9.768;2022-08-19T01:32:45;6.85;;;6.15;;
38779;SDS011;29273;49.962;9.768;2022-08-19T01:35:11;7.60;;;6.80;;
38779;SDS011;29273;49.962;9.768;2022-08-19T01:37:42;7.15;;;6.45;;
38779;SDS011;29273;49.962;9.768;2022-08-19T01:40:30;7.57;;;6.72;;
38779;SDS011;29273;49.962;9.768;2022-08-19T01:42:58;6.78;;;6.15;;
38779;SDS011;29273;49.962;9.768;2022-08-19T01:45:25;7.00;;;6.30;;
38779;SDS011;29273;49.962;9.768;2022-08-19T01:47:53;7.50;;;6.72;;
38779;SDS011;29273;49.962;9.768;2022-08-19T01:50:19;7.10;;;6.40;;
38779;SDS011;29273;49.962;9.768;2022-08-19T01:52:45;7.10;;;6.40;;
38779;SDS011;29273;49.962;9.768;2022-08-19T01:55:12;6.88;;;6.18;;
38779;SDS011;29273;49.962;9.768;2022-08-19T01:57:41;7.20;;;6.20;;
38779;SDS011;29273;49.962;9.768;2022-08-19T02:00:11;6.88;;;6.18;;
38779;SDS011;29273;49.962;9.768;2022-08-19T02:02:40;6.78;;;6.18;;
38779;SDS011;29273;49.962;9.768;2022-08-19T02:05:06;6.22;;;5.63;;
38779;SDS011;29273;49.962;9.768;2022-08-19T02:07:33;7.38;;;5.90;;
38779;SDS011;29273;49.962;9.768;2022-08-19T02:10:01;7.32;;;6.43;;
38779;SDS011;29273;49.962;9.768;2022-08-19T02:12:28;6.75;;;6.05;;
38779;SDS011;29273;49.962;9.768;2022-08-19T02:14:54;7.32;;;6.63;;
38779;SDS011;29273;49.962;9.768;2022-08-19T02:17:19;7.40;;;6.57;;
38779;SDS011;29273;49.962;9.768;2022-08-19T02:19:45;7.78;;;6.97;;
38779;SDS011;29273;49.962;9.768;2022-08-19T02:22:11;7.47;;;6.68;;
38779;SDS011;29273;49.962;9.768;2022-08-19T02:24:36;7.55;;;6.85;;
38779;SDS011;29273;49.962;9.768;2022-08-19T02:27:02;6.45;;;5.85;;
38779;SDS011;29273;49.962;9.768;2022-08-19T02:29:27;6.47;;;5.88;;
38779;SDS011;29273;49.962;9.768;2022-08-19T02:31:52;6.63;;;5.95;;
38779;SDS011;29273;49.962;9.768;2022-08-19T02:34:18;7.40;;;6.70;;
38779;SDS011;29273;49.962;9.768;2022-08-19T02:36:44;7.40;;;6.28;;
38779;SDS011;29273;49.962;9.768;2022-08-19T02:39:09;7.03;;;6.32;;
38779;SDS011;29273;49.962;9.768;2022-08-19T02:41:35;6.90;;;6.20;;
38779;SDS011;29273;49.962;9.768;2022-08-19T02:44:01;7.03;;;6.32;;
38779;SDS011;29273;49.962;9.768;2022-08-19T02:46:30;7.47;;;6.70;;
38779;SDS011;29273;49.962;9.768;2022-08-19T02:48:59;6.82;;;6.13;;
38779;SDS011;29273;49.962;9.768;2022-08-19T02:51:28;6.18;;;5.57;;
38779;SDS011;29273;49.962;9.768;2022-08-19T02:53:55;7.55;;;6.15;;
38779;SDS011;29273;49.962;9.768;2022-08-19T02:56:21;6.95;;;6.00;;
38779;SDS011;29273;49.962;9.768;2022-08-19T02:58:49;6.47;;;5.88;;
38779;SDS011;29273;49.962;9.768;2022-08-19T03:01:25;6.95;;;6.25;;
38779;SDS011;29273;49.962;9.768;2022-08-19T03:03:53;7.15;;;6.20;;
38779;SDS011;29273;49.962;9.768;2022-08-19T03:06:20;6.13;;;5.55;;
38779;SDS011;29273;49.962;9.768;2022-08-19T03:08:47;6.97;;;6.28;;
38779;SDS011;29273;49.962;9.768;2022-08-19T03:11:21;6.40;;;5.72;;
38779;SDS011;29273;49.962;9.768;2022-08-19T03:13:49;6.22;;;5.47;;
38779;SDS011;29273;49.962;9.768;2022-08-19T03:16:16;6.57;;;5.97;;
38779;SDS011;29273;49.962;9.768;2022-08-19T03:18:42;5.65;;;5.15;;
38779;SDS011;29273;49.962;9.768;2022-08-19T03:21:08;6.07;;;5.53;;
38779;SDS011;29273;49.962;9.768;2022-08-19T03:23:34;5.80;;;5.30;;
38779;SDS011;29273;49.962;9.768;2022-08-19T03:26:03;6.53;;;5.85;;
38779;SDS011;29273;49.962;9.768;2022-08-19T03:28:29;6.85;;;5.63;;
38779;SDS011;29273;49.962;9.768;2022-08-19T03:30:57;7.00;;;5.78;;
38779;SDS011;29273;49.962;9.768;2022-08-19T03:33:26;6.28;;;5.65;;
38779;SDS011;29273;49.962;9.768;2022-08-19T03:36:26;7.43;;;5.50;;
38779;SDS011;29273;49.962;9.768;2022-08-19T03:38:49;6.10;;;5.50;;
38779;SDS011;29273;49.962;9.768;2022-08-19T03:41:23;5.68;;;5.07;;
38779;SDS011;29273;49.962;9.768;2022-08-19T03:43:50;5.82;;;5.25;;
38779;SDS011;29273;49.962;9.768;2022-08-19T03:46:18;5.30;;;4.80;;
38779;SDS011;29273;49.962;9.768;2022-08-19T03:48:46;5.80;;;5.30;;
38779;SDS011;29273;49.962;9.768;2022-08-19T03:51:17;5.60;;;4.93;;
38779;SDS011;29273;49.962;9.768;2022-08-19T03:53:45;5.70;;;5.20;;
38779;SDS011;29273;49.962;9.768;2022-08-19T03:56:11;4.70;;;4.20;;
38779;SDS011;29273;49.962;9.768;2022-08-19T03:58:38;5.97;;;5.38;;
38779;SDS011;29273;49.962;9.768;2022-08-19T04:01:11;5.75;;;5.18;;
38779;SDS011;29273;49.962;9.768;2022-08-19T04:03:39;7.85;;;5.57;;
38779;SDS011;29273;49.962;9.768;2022-08-19T04:06:18;6.90;;;6.20;;
38779;SDS011;29273;49.962;9.768;2022-08-19T04:08:47;5.68;;;5.18;;
38779;SDS011;29273;49.962;9.768;2022-08-19T04:11:15;6.28;;;5.28;;
38779;SDS011;29273;49.962;9.768;2022-08-19T04:13:43;6.05;;;5.32;;
38779;SDS011;29273;49.962;9.768;2022-08-19T04:16:10;5.65;;;5.15;;
38779;SDS011;29273;49.962;9.768;2022-08-19T04:18:36;5.57;;;5.07;;
38779;SDS011;29273;49.962;9.768;2022-08-19T04:21:03;5.88;;;5.15;;
38779;SDS011;29273;49.962;9.768;2022-08-19T04:23:30;5.53;;;5.03;;
38779;SDS011;29273;49.962;9.768;2022-08-19T04:25:56;5.93;;;5.40;;
38779;SDS011;29273;49.962;9.768;2022-08-19T04:28:22;5.90;;;5.30;;
38779;SDS011;29273;49.962;9.768;2022-08-19T04:30:49;5.70;;;5.20;;
38779;SDS011;29273;49.962;9.768;2022-08-19T04:33:17;6.28;;;5.68;;
38779;SDS011;29273;49.962;9.768;2022-08-19T04:35:46;5.57;;;5.07;;
38779;SDS011;29273;49.962;9.768;2022-08-19T04:38:13;5.50;;;5.00;;
38779;SDS011;29273;49.962;9.768;2022-08-19T04:40:41;6.78;;;5.45;;
38779;SDS011;29273;49.962;9.768;2022-08-19T04:43:26;6.22;;;5.30;;
38779;SDS011;29273;49.962;9.768;2022-08-19T04:45:52;5.85;;;5.25;;
38779;SDS011;29273;49.962;9.768;2022-08-19T04:48:18;5.57;;;5.03;;
38779;SDS011;29273;49.962;9.768;2022-08-19T04:50:50;5.47;;;4.82;;
38779;SDS011;29273;49.962;9.768;2022-08-19T04:53:23;5.88;;;5.05;;
38779;SDS011;29273;49.962;9.768;2022-08-19T04:55:57;5.65;;;5.15;;
38779;SDS011;29273;49.962;9.768;2022-08-19T04:58:25;5.90;;;5.30;;
38779;SDS011;29273;49.962;9.768;2022-08-19T05:00:52;5.28;;;4.75;;
38779;SDS011;29273;49.962;9.768;2022-08-19T05:03:18;5.18;;;4.68;;
38779;SDS011;29273;49.962;9.768;2022-08-19T05:05:45;5.13;;;4.68;;
38779;SDS011;29273;49.962;9.768;2022-08-19T05:08:14;5.43;;;4.93;;
38779;SDS011;29273;49.962;9.768;2022-08-19T05:10:48;6.55;;;5.45;;
38779;SDS011;29273;49.962;9.768;2022-08-19T05:13:16;5.20;;;4.68;;
38779;SDS011;29273;49.962;9.768;2022-08-19T05:15:43;5.70;;;5.10;;
38779;SDS011;29273;49.962;9.768;2022-08-19T05:18:09;6.30;;;5.10;;
38779;SDS011;29273;49.962;9.768;2022-08-19T05:20:53;5.22;;;4.72;;
38779;SDS011;29273;49.962;9.768;2022-08-19T05:23:37;5.03;;;4.53;;
38779;SDS011;29273;49.962;9.768;2022-08-19T05:26:03;5.40;;;4.50;;
38779;SDS011;29273;49.962;9.768;2022-08-19T05:28:29;5.45;;;4.80;;
38779;SDS011;29273;49.962;9.768;2022-08-19T05:30:55;4.82;;;4.38;;
38779;SDS011;29273;49.962;9.768;2022-08-19T05:33:21;5.10;;;4.60;;
38779;SDS011;29273;49.962;9.768;2022-08-19T05:35:47;5.20;;;4.70;;
38779;SDS011;29273;49.962;9.768;2022-08-19T05:38:15;5.18;;;4.47;;
38779;SDS011;29273;49.962;9.768;2022-08-19T05:40:41;5.60;;;5.10;;
38779;SDS011;29273;49.962;9.768;2022-08-19T05:43:10;5.30;;;4.80;;
38779;SDS011;29273;49.962;9.768;2022-08-19T05:45:39;5.47;;;4.97;;
38779;SDS011;29273;49.962;9.768;2022-08-19T05:48:07;5.55;;;5.05;;
38779;SDS011;29273;49.962;9.768;2022-08-19T05:50:35;5.50;;;5.00;;
38779;SDS011;29273;49.962;9.768;2022-08-19T05:53:01;5.20;;;4.70;;
38779;SDS011;29273;49.962;9.768;2022-08-19T05:55:26;5.65;;;5.15;;
38779;SDS011;29273;49.962;9.768;2022-08-19T05:57:52;5.53;;;5.00;;
38779;SDS011;29273;49.962;9.768;2022-08-19T06:00:17;5.10;;;4.60;;
38779;SDS011;29273;49.962;9.768;2022-08-19T06:02:43;5.28;;;4.70;;
38779;SDS011;29273;49.962;9.768;2022-08-19T06:05:08;5.35;;;4.85;;
38779;SDS011;29273;49.962;9.768;2022-08-19T06:07:35;5.20;;;4.70;;
38779;SDS011;29273;49.962;9.768;2022-08-19T06:10:03;5.30;;;4.80;;
38779;SDS011;29273;49.962;9.768;2022-08-19T06:12:30;4.88;;;4.47;;
38779;SDS011;29273;49.962;9.768;2022-08-19T06:15:07;5.13;;;4.63;;
38779;SDS011;29273;49.962;9.768;2022-08-19T06:17:35;4.90;;;4.50;;
38779;SDS011;29273;49.962;9.768;2022-08-19T06:20:05;5.47;;;4.97;;
38779;SDS011;29273;49.962;9.768;2022-08-19T06:22:36;4.53;;;4.13;;
38779;SDS011;29273;49.962;9.768;2022-08-19T06:25:14;5.45;;;4.90;;
38779;SDS011;29273;49.962;9.768;2022-08-19T06:27:40;6.10;;;5.50;;
38779;SDS011;29273;49.962;9.768;2022-08-19T06:30:06;5.25;;;4.78;;
38779;SDS011;29273;49.962;9.768;2022-08-19T06:32:33;5.85;;;5.25;;
38779;SDS011;29273;49.962;9.768;2022-08-19T06:34:58;5.78;;;5.28;;
38779;SDS011;29273;49.962;9.768;2022-08-19T06:37:24;5.40;;;4.90;;
38779;SDS011;29273;49.962;9.768;2022-08-19T06:39:50;4.95;;;4.55;;
38779;SDS011;29273;49.962;9.768;2022-08-19T06:42:16;5.82;;;5.22;;
38779;SDS011;29273;49.962;9.768;2022-08-19T06:44:45;5.45;;;4.95;;
38779;SDS011;29273;49.962;9.768;2022-08-19T06:47:13;5.07;;;4.68;;
38779;SDS011;29273;49.962;9.768;2022-08-19T06:49:41;5.32;;;4.82;;
38779;SDS011;29273;49.962;9.768;2022-08-19T06:52:07;5.53;;;5.03;;
38779;SDS011;29273;49.962;9.768;2022-08-19T06:54:33;5.70;;;5.07;;
38779;SDS011;29273;49.962;9.768;2022-08-19T06:56:59;5.25;;;4.75;;
38779;SDS011;29273;49.962;9.768;2022-08-19T06:59:29;5.72;;;5.13;;
38779;SDS011;29273;49.962;9.768;2022-08-19T07:01:57;5.25;;;4.75;;
38779;SDS011;29273;49.962;9.768;2022-08-19T07:04:26;5.28;;;4.82;;
38779;SDS011;29273;49.962;9.768;2022-08-19T07:06:57;4.97;;;4.50;;
38779;SDS011;29273;49.962;9.768;2022-08-19T07:09:24;5.00;;;4.50;;
38779;SDS011;29273;49.962;9.768;2022-08-19T07:11:51;5.40;;;4.90;;
38779;SDS011;29273;49.962;9.768;2022-08-19T07:14:19;4.93;;;4.53;;
38779;SDS011;29273;49.962;9.768;2022-08-19T07:16:48;5.68;;;4.93;;
38779;SDS011;29273;49.962;9.768;2022-08-19T07:19:16;5.75;;;5.22;;
38779;SDS011;29273;49.962;9.768;2022-08-19T07:21:42;5.95;;;5.22;;
38779;SDS011;29273;49.962;9.768;2022-08-19T07:24:08;4.80;;;4.40;;
38779;SDS011;29273;49.962;9.768;2022-08-19T07:26:37;4.82;;;4.43;;
38779;SDS011;29273;49.962;9.768;2022-08-19T07:29:04;4.63;;;4.22;;
38779;SDS011;29273;49.962;9.768;2022-08-19T07:31:30;6.07;;;4.63;;
38779;SDS011;29273;49.962;9.768;2022-08-19T07:33:58;5.70;;;4.72;;
38779;SDS011;29273;49.962;9.768;2022-08-19T07:36:25;5.22;;;4.72;;
38779;SDS011;29273;49.962;9.768;2022-08-19T07:38:58;5.10;;;4.60;;
38779;SDS011;29273;49.962;9.768;2022-08-19T07:41:26;4.47;;;4.07;;
38779;SDS011;29273;49.962;9.768;2022-08-19T07:43:54;5.72;;;4.93;;
38779;SDS011;29273;49.962;9.768;2022-08-19T07:46:20;4.57;;;4.18;;
38779;SDS011;29273;49.962;9.768;2022-08-19T07:48:47;5.30;;;4.78;;
38779;SDS011;29273;49.962;9.768;2022-08-19T07:51:19;5.10;;;4.60;;
38779;SDS011;29273;49.962;9.768;2022-08-19T07:53:46;5.20;;;4.70;;
38779;SDS011;29273;49.962;9.768;2022-08-19T07:56:13;5.15;;;4.75;;
38779;SDS011;29273;49.962;9.768;2022-08-19T07:58:40;4.68;;;4.20;;
38779;SDS011;29273;49.962;9.768;2022-08-19T08:01:07;5.63;;;4.35;;
38779;SDS011;29273;49.962;9.768;2022-08-19T08:03:36;5.00;;;4.50;;
38779;SDS011;29273;49.962;9.768;2022-08-19T08:06:21;4.78;;;4.22;;
38779;SDS011;29273;49.962;9.768;2022-08-19T08:09:06;4.78;;;4.28;;
38779;SDS011;29273;49.962;9.768;2022-08-19T08:11:53;4.65;;;4.25;;
38779;SDS011;29273;49.962;9.768;2022-08-19T08:14:25;6.50;;;4.35;;
38779;SDS011;29273;49.962;9.768;2022-08-19T08:16:54;4.13;;;3.80;;
38779;SDS011;29273;49.962;9.768;2022-08-19T08:19:20;4.93;;;4.20;;
38779;SDS011;29273;49.962;9.768;2022-08-19T08:21:49;4.30;;;3.85;;
38779;SDS011;29273;49.962;9.768;2022-08-19T08:24:15;4.13;;;3.72;;
38779;SDS011;29273;49.962;9.768;2022-08-19T08:26:41;5.10;;;4.00;;
38779;SDS011;29273;49.962;9.768;2022-08-19T08:29:09;3.70;;;3.40;;
38779;SDS011;29273;49.962;9.768;2022-08-19T08:31:38;4.30;;;3.63;;
38779;SDS011;29273;49.962;9.768;2022-08-19T08:34:05;3.75;;;3.40;;
38779;SDS011;29273;49.962;9.768;2022-08-19T08:36:30;4.38;;;3.50;;
38779;SDS011;29273;49.962;9.768;2022-08-19T08:38:58;2.90;;;2.60;;
38779;SDS011;29273;49.962;9.768;2022-08-19T08:41:34;3.40;;;3.10;;
38779;SDS011;29273;49.962;9.768;2022-08-19T08:44:13;3.05;;;2.75;;
38779;SDS011;29273;49.962;9.768;2022-08-19T08:46:49;2.58;;;2.30;;
38779;SDS011;29273;49.962;9.768;2022-08-19T08:49:32;2.42;;;2.22;;
38779;SDS011;29273;49.962;9.768;2022-08-19T08:54:55;4.32;;;2.90;;
38779;SDS011;29273;49.962;9.768;2022-08-19T08:57:29;2.33;;;2.13;;
38779;SDS011;29273;49.962;9.768;2022-08-19T09:00:00;2.70;;;2.50;;
38779;SDS011;29273;49.962;9.768;2022-08-19T09:02:30;2.70;;;2.30;;
38779;SDS011;29273;49.962;9.768;2022-08-19T09:04:56;2.40;;;2.20;;
38779;SDS011;29273;49.962;9.768;2022-08-19T09:07:37;2.20;;;2.00;;
38779;SDS011;29273;49.962;9.768;2022-08-19T09:10:25;2.97;;;2.30;;
38779;SDS011;29273;49.962;9.768;2022-08-19T09:13:03;2.40;;;1.77;;
38779;SDS011;29273;49.962;9.768;2022-08-19T09:15:40;2.05;;;1.85;;
38779;SDS011;29273;49.962;9.768;2022-08-19T09:18:11;2.30;;;2.10;;
38779;SDS011;29273;49.962;9.768;2022-08-19T09:20:37;2.33;;;2.10;;
38779;SDS011;29273;49.962;9.768;2022-08-19T09:23:02;2.13;;;1.92;;
38779;SDS011;29273;49.962;9.768;2022-08-19T09:25:28;2.05;;;1.95;;
38779;SDS011;29273;49.962;9.768;2022-08-19T09:27:55;2.38;;;2.17;;
38779;SDS011;29273;49.962;9.768;2022-08-19T09:30:24;1.83;;;1.70;;
38779;SDS011;29273;49.962;9.768;2022-08-19T09:32:52;2.95;;;2.00;;
38779;SDS011;29273;49.962;9.768;2022-08-19T09:35:20;1.92;;;1.70;;
38779;SDS011;29273;49.962;9.768;2022-08-19T09:37:47;1.75;;;1.63;;
38779;SDS011;29273;49.962;9.768;2022-08-19T09:40:14;1.80;;;1.67;;
38779;SDS011;29273;49.962;9.768;2022-08-19T09:42:40;2.00;;;1.80;;
38779;SDS011;29273;49.962;9.768;2022-08-19T09:45:08;1.95;;;1.45;;
38779;SDS011;29273;49.962;9.768;2022-08-19T09:47:34;1.80;;;1.70;;
38779;SDS011;29273;49.962;9.768;2022-08-19T09:50:06;1.90;;;1.60;;
38779;SDS011;29273;49.962;9.768;2022-08-19T09:52:34;1.90;;;1.70;;
38779;SDS011;29273;49.962;9.768;2022-08-19T09:55:03;1.55;;;1.45;;
38779;SDS011;29273;49.962;9.768;2022-08-19T09:57:29;2.10;;;1.40;;
38779;SDS011;29273;49.962;9.768;2022-08-19T09:59:55;2.45;;;1.58;;
38779;SDS011;29273;49.962;9.768;2022-08-19T10:02:20;1.65;;;1.55;;
38779;SDS011;29273;49.962;9.768;2022-08-19T10:04:46;1.60;;;1.50;;
38779;SDS011;29273;49.962;9.768;2022-08-19T10:07:29;2.78;;;1.80;;
38779;SDS011;29273;49.962;9.768;2022-08-19T10:09:55;2.38;;;1.90;;
38779;SDS011;29273;49.962;9.768;2022-08-19T10:12:20;1.80;;;1.70;;
38779;SDS011;29273;49.962;9.768;2022-08-19T10:14:47;2.13;;;1.70;;
38779;SDS011;29273;49.962;9.768;2022-08-19T10:17:13;2.10;;;1.83;;
38779;SDS011;29273;49.962;9.768;2022-08-19T10:19:39;2.85;;;1.88;;
38779;SDS011;29273;49.962;9.768;2022-08-19T10:22:05;2.28;;;1.60;;
38779;SDS011;29273;49.962;9.768;2022-08-19T10:24:32;2.35;;;2.00;;
38779;SDS011;29273;49.962;9.768;2022-08-19T10:26:59;1.60;;;1.50;;
38779;SDS011;29273;49.962;9.768;2022-08-19T10:29:28;2.53;;;1.92;;
38779;SDS011;29273;49.962;9.768;2022-08-19T10:31:55;1.92;;;1.73;;
38779;SDS011;29273;49.962;9.768;2022-08-19T10:34:21;1.83;;;1.73;;
38779;SDS011;29273;49.962;9.768;2022-08-19T10:36:47;2.00;;;1.80;;
38779;SDS011;29273;49.962;9.768;2022-08-19T10:39:13;1.63;;;1.50;;
38779;SDS011;29273;49.962;9.768;2022-08-19T10:41:39;1.88;;;1.77;;
38779;SDS011;29273;49.962;9.768;2022-08-19T10:44:06;1.95;;;1.85;;
38779;SDS011;29273;49.962;9.768;2022-08-19T10:46:35;2.25;;;1.77;;
38779;SDS011;29273;49.962;9.768;2022-08-19T10:49:02;1.75;;;1.63;;
38779;SDS011;29273;49.962;9.768;2022-08-19T10:51:29;1.92;;;1.73;;
38779;SDS011;29273;49.962;9.768;2022-08-19T10:54:14;2.60;;;1.65;;
38779;SDS011;29273;49.962;9.768;2022-08-19T10:56:39;2.03;;;1.75;;
38779;SDS011;29273;49.962;9.768;2022-08-19T10:59:18;2.10;;;1.90;;
38779;SDS011;29273;49.962;9.768;2022-08-19T11:01:51;1.60;;;1.50;;
38779;SDS011;29273;49.962;9.768;2022-08-19T11:04:17;1.80;;;1.45;;
38779;SDS011;29273;49.962;9.768;2022-08-19T11:06:44;1.52;;;1.42;;
38779;SDS011;29273;49.962;9.768;2022-08-19T11:09:13;1.60;;;1.50;;
38779;SDS011;29273;49.962;9.768;2022-08-19T11:11:40;1.75;;;1.65;;
38779;SDS011;29273;49.962;9.768;2022-08-19T11:14:10;1.55;;;1.40;;
38779;SDS011;29273;49.962;9.768;2022-08-19T11:16:37;1.93;;;1.47;;
38779;SDS011;29273;49.962;9.768;2022-08-19T11:19:04;1.73;;;1.33;;
38779;SDS011;29273;49.962;9.768;2022-08-19T11:21:31;1.40;;;1.30;;
38779;SDS011;29273;49.962;9.768;2022-08-19T11:24:03;1.73;;;1.42;;
38779;SDS011;29273;49.962;9.768;2022-08-19T11:26:42;1.63;;;1.33;;
38779;SDS011;29273;49.962;9.768;2022-08-19T11:29:09;1.58;;;1.48;;
38779;SDS011;29273;49.962;9.768;2022-08-19T11:31:40;1.25;;;1.15;;
38779;SDS011;29273;49.962;9.768;2022-08-19T11:34:08;1.50;;;1.40;;
38779;SDS011;29273;49.962;9.768;2022-08-19T11:36:38;1.65;;;1.30;;
38779;SDS011;29273;49.962;9.768;2022-08-19T11:39:06;1.35;;;1.25;;
38779;SDS011;29273;49.962;9.768;2022-08-19T11:41:32;1.50;;;1.40;;
38779;SDS011;29273;49.962;9.768;2022-08-19T11:43:59;1.60;;;1.50;;
38779;SDS011;29273;49.962;9.768;2022-08-19T11:46:25;1.50;;;1.40;;
38779;SDS011;29273;49.962;9.768;2022-08-19T11:48:55;1.55;;;1.45;;
38779;SDS011;29273;49.962;9.768;2022-08-19T11:51:26;1.40;;;1.25;;
38779;SDS011;29273;49.962;9.768;2022-08-19T11:53:53;1.40;;;1.30;;
38779;SDS011;29273;49.962;9.768;2022-08-19T11:56:20;1.23;;;1.13;;
38779;SDS011;29273;49.962;9.768;2022-08-19T11:58:47;1.60;;;1.27;;
38779;SDS011;29273;49.962;9.768;2022-08-19T12:01:14;1.63;;;1.30;;
38779;SDS011;29273;49.962;9.768;2022-08-19T12:03:43;1.52;;;1.30;;
38779;SDS011;29273;49.962;9.768;2022-08-19T12:06:17;1.73;;;1.50;;
38779;SDS011;29273;49.962;9.768;2022-08-19T12:08:45;0.90;;;0.90;;
38779;SDS011;29273;49.962;9.768;2022-08-19T12:11:11;1.02;;;1.00;;
38779;SDS011;29273;49.962;9.768;2022-08-19T12:13:38;1.42;;;1.05;;
38779;SDS011;29273;49.962;9.768;2022-08-19T12:16:11;3.20;;;1.23;;
38779;SDS011;29273;49.962;9.768;2022-08-19T12:18:38;0.95;;;0.85;;
38779;SDS011;29273;49.962;9.768;2022-08-19T12:21:07;1.30;;;1.00;;
38779;SDS011;29273;49.962;9.768;2022-08-19T12:23:35;1.02;;;1.00;;
38779;SDS011;29273;49.962;9.768;2022-08-19T12:26:02;1.20;;;0.90;;
38779;SDS011;29273;49.962;9.768;2022-08-19T12:28:28;1.73;;;1.20;;
38779;SDS011;29273;49.962;9.768;2022-08-19T12:30:55;0.80;;;0.77;;
38779;SDS011;29273;49.962;9.768;2022-08-19T12:33:22;0.93;;;0.85;;
38779;SDS011;29273;49.962;9.768;2022-08-19T12:35:53;0.82;;;0.73;;
38779;SDS011;29273;49.962;9.768;2022-08-19T12:38:19;1.20;;;1.02;;
38779;SDS011;29273;49.962;9.768;2022-08-19T12:40:45;0.80;;;0.80;;
38779;SDS011;29273;49.962;9.768;2022-08-19T12:43:12;0.90;;;0.80;;
38779;SDS011;29273;49.962;9.768;2022-08-19T12:45:37;0.80;;;0.80;;
38779;SDS011;29273;49.962;9.768;2022-08-19T12:48:03;0.68;;;0.68;;
38779;SDS011;29273;49.962;9.768;2022-08-19T12:50:29;1.15;;;1.05;;
38779;SDS011;29273;49.962;9.768;2022-08-19T12:52:56;0.90;;;0.90;;
38779;SDS011;29273;49.962;9.768;2022-08-19T12:55:22;1.02;;;0.80;;
38779;SDS011;29273;49.962;9.768;2022-08-19T12:57:48;0.93;;;0.93;;
38779;SDS011;29273;49.962;9.768;2022-08-19T13:00:18;0.75;;;0.70;;
38779;SDS011;29273;49.962;9.768;2022-08-19T13:02:47;0.70;;;0.70;;
38779;SDS011;29273;49.962;9.768;2022-08-19T13:05:21;0.85;;;0.70;;
38779;SDS011;29273;49.962;9.768;2022-08-19T13:07:52;0.65;;;0.65;;
38779;SDS011;29273;49.962;9.768;2022-08-19T13:10:27;0.75;;;0.75;;
38779;SDS011;29273;49.962;9.768;2022-08-19T13:12:55;1.02;;;0.77;;
38779;SDS011;29273;49.962;9.768;2022-08-19T13:15:22;0.85;;;0.80;;
38779;SDS011;29273;49.962;9.768;2022-08-19T13:17:48;0.80;;;0.68;;
38779;SDS011;29273;49.962;9.768;2022-08-19T13:20:16;0.90;;;0.70;;
38779;SDS011;29273;49.962;9.768;2022-08-19T13:22:44;1.15;;;0.90;;
38779;SDS011;29273;49.962;9.768;2022-08-19T13:25:11;1.17;;;0.70;;
38779;SDS011;29273;49.962;9.768;2022-08-19T13:27:38;0.60;;;0.60;;
38779;SDS011;29273;49.962;9.768;2022-08-19T13:30:04;1.02;;;0.80;;
38779;SDS011;29273;49.962;9.768;2022-08-19T13:32:50;0.75;;;0.60;;
38779;SDS011;29273;49.962;9.768;2022-08-19T13:35:49;0.57;;;0.57;;
38779;SDS011;29273;49.962;9.768;2022-08-19T13:38:17;1.35;;;0.80;;
38779;SDS011;29273;49.962;9.768;2022-08-19T13:40:46;0.80;;;0.80;;
38779;SDS011;29273;49.962;9.768;2022-08-19T13:43:12;0.60;;;0.60;;
38779;SDS011;29273;49.962;9.768;2022-08-19T13:45:38;0.60;;;0.60;;
38779;SDS011;29273;49.962;9.768;2022-08-19T13:48:05;0.75;;;0.70;;
38779;SDS011;29273;49.962;9.768;2022-08-19T13:50:32;0.80;;;0.80;;
38779;SDS011;29273;49.962;9.768;2022-08-19T13:52:59;0.77;;;0.77;;
38779;SDS011;29273;49.962;9.768;2022-08-19T13:55:26;0.82;;;0.82;;
38779;SDS011;29273;49.962;9.768;2022-08-19T13:57:53;0.75;;;0.70;;
38779;SDS011;29273;49.962;9.768;2022-08-19T14:00:23;0.63;;;0.63;;
38779;SDS011;29273;49.962;9.768;2022-08-19T14:02:52;0.70;;;0.70;;
38779;SDS011;29273;49.962;9.768;2022-08-19T14:05:19;0.80;;;0.70;;
38779;SDS011;29273;49.962;9.768;2022-08-19T14:07:45;0.70;;;0.70;;
38779;SDS011;29273;49.962;9.768;2022-08-19T14:10:12;0.70;;;0.70;;
38779;SDS011;29273;49.962;9.768;2022-08-19T14:12:38;0.90;;;0.70;;
38779;SDS011;29273;49.962;9.768;2022-08-19T14:15:05;4.13;;;0.70;;
38779;SDS011;29273;49.962;9.768;2022-08-19T14:17:32;0.80;;;0.73;;
38779;SDS011;29273;49.962;9.768;2022-08-19T14:20:00;0.77;;;0.70;;
38779;SDS011;29273;49.962;9.768;2022-08-19T14:22:34;1.05;;;0.82;;
38779;SDS011;29273;49.962;9.768;2022-08-19T14:25:13;0.70;;;0.70;;
38779;SDS011;29273;49.962;9.768;2022-08-19T14:27:41;0.82;;;0.82;;
38779;SDS011;29273;49.962;9.768;2022-08-19T14:30:08;1.20;;;0.90;;
38779;SDS011;29273;49.962;9.768;2022-08-19T14:32:35;0.70;;;0.70;;
38779;SDS011;29273;49.962;9.768;2022-08-19T14:35:01;0.80;;;0.80;;
38779;SDS011;29273;49.962;9.768;2022-08-19T14:37:27;0.95;;;0.88;;
38779;SDS011;29273;49.962;9.768;2022-08-19T14:39:53;0.60;;;0.60;;
38779;SDS011;29273;49.962;9.768;2022-08-19T14:42:19;1.65;;;1.00;;
38779;SDS011;29273;49.962;9.768;2022-08-19T14:44:44;1.23;;;0.80;;
38779;SDS011;29273;49.962;9.768;2022-08-19T14:47:10;1.58;;;0.80;;
38779;SDS011;29273;49.962;9.768;2022-08-19T14:49:35;0.80;;;0.70;;
38779;SDS011;29273;49.962;9.768;2022-08-19T14:52:01;0.80;;;0.70;;
38779;SDS011;29273;49.962;9.768;2022-08-19T14:54:28;1.17;;;0.90;;
38779;SDS011;29273;49.962;9.768;2022-08-19T14:56:54;0.98;;;0.80;;
38779;SDS011;29273;49.962;9.768;2022-08-19T14:59:19;0.98;;;0.90;;